Time;durP1;ratioP1;P1;durP2;ratioP2;P2;SDS_P1;SDS_P2;PMS_P1;PMS_P2;Temp;Humidity;BMP_temperature;BMP_pressure;BME280_temperature;BME280_humidity;BME280_pressure;Samples;Min_cycle;Max_cycle;Signal;HPM_P1;HPM_P2
2022/10/09 00:01:28;;;;;;;20.05;7.25;;;;;;;8.92;100.00;102172.78;5015228;28;20052;-75
2022/10/09 00:03:55;;;;;;;15.75;6.57;;;;;;;8.93;100.00;102179.09;5012420;28;20057;-73
2022/10/09 00:06:26;;;;;;;19.25;7.82;;;;;;;8.89;100.00;102184.53;5010999;28;20049;-75
2022/10/09 00:08:52;;;;;;;18.80;7.05;;;;;;;8.84;100.00;102175.69;5009982;28;20060;-74
2022/10/09 00:11:22;;;;;;;16.75;7.35;;;;;;;8.80;100.00;102169.22;4990070;28;20875;-75
2022/10/09 00:13:50;;;;;;;18.58;8.30;;;;;;;8.84;100.00;102168.19;5007961;28;20049;-77
2022/10/09 00:16:17;;;;;;;18.48;7.10;;;;;;;8.85;100.00;102178.09;5009086;28;20065;-74
2022/10/09 00:18:45;;;;;;;18.65;7.47;;;;;;;8.82;100.00;102176.03;5007254;28;20060;-76
2022/10/09 00:21:26;;;;;;;18.48;7.53;;;;;;;8.85;100.00;102189.13;5010561;28;20871;-76
2022/10/09 00:23:55;;;;;;;20.35;8.15;;;;;;;8.80;100.00;102180.28;5011121;28;20505;-76
2022/10/09 00:26:23;;;;;;;16.17;7.15;;;;;;;8.65;100.00;102190.13;5010578;28;20060;-74
2022/10/09 00:28:49;;;;;;;19.25;8.02;;;;;;;8.53;100.00;102190.13;5011810;28;20122;-74
2022/10/09 00:31:17;;;;;;;21.52;7.25;;;;;;;8.54;100.00;102188.97;5009319;28;20056;-74
2022/10/09 00:33:44;;;;;;;17.63;7.07;;;;;;;8.59;100.00;102190.69;5009602;28;20157;-74
2022/10/09 00:36:13;;;;;;;20.15;7.05;;;;;;;8.58;100.00;102189.09;5007537;28;20049;-77
2022/10/09 00:38:40;;;;;;;19.80;7.30;;;;;;;8.57;100.00;102191.03;5013488;28;20049;-74
2022/10/09 00:41:07;;;;;;;17.30;6.90;;;;;;;8.52;100.00;102188.53;5009350;28;20049;-76
2022/10/09 00:43:40;;;;;;;17.42;6.88;;;;;;;8.45;100.00;102191.06;5009167;28;20052;-74
2022/10/09 00:46:15;;;;;;;18.42;7.47;;;;;;;8.46;100.00;102175.31;5011158;28;20052;-74
2022/10/09 00:48:42;;;;;;;18.13;7.03;;;;;;;8.52;100.00;102187.72;5008603;28;20159;-74
2022/10/09 00:51:09;;;;;;;18.65;7.28;;;;;;;8.51;100.00;102181.41;5010288;28;20049;-73
2022/10/09 00:53:35;;;;;;;18.35;6.95;;;;;;;8.44;100.00;102178.41;4992146;28;20123;-76
2022/10/09 00:56:02;;;;;;;18.83;6.70;;;;;;;8.45;100.00;102182.78;5009547;28;20071;-74
2022/10/09 00:58:28;;;;;;;17.83;7.20;;;;;;;8.36;100.00;102170.28;5010663;28;20053;-74
2022/10/09 01:00:55;;;;;;;18.13;8.05;;;;;;;8.42;100.00;102193.72;5011241;28;20049;-74
2022/10/09 01:03:21;;;;;;;17.73;7.55;;;;;;;8.37;100.00;102188.44;5007947;28;20055;-75
2022/10/09 01:05:50;;;;;;;15.70;6.85;;;;;;;8.36;100.00;102189.56;5006686;28;20704;-74
2022/10/09 01:08:22;;;;;;;17.58;7.18;;;;;;;8.31;100.00;102184.31;5011396;28;20131;-74
2022/10/09 01:11:00;;;;;;;18.75;7.38;;;;;;;8.23;100.00;102193.53;5011183;28;20111;-74
2022/10/09 01:13:34;;;;;;;18.38;7.45;;;;;;;8.08;100.00;102194.97;5017534;28;20049;-74
2022/10/09 01:16:10;;;;;;;19.40;8.25;;;;;;;8.11;100.00;102193.47;5019764;28;20052;-74
2022/10/09 01:18:45;;;;;;;17.35;7.97;;;;;;;8.14;100.00;102190.84;4995966;28;20778;-74
2022/10/09 01:21:36;;;;;;;18.75;7.47;;;;;;;8.17;100.00;102192.91;5011490;28;20049;-74
2022/10/09 01:24:09;;;;;;;18.05;8.15;;;;;;;8.13;100.00;102180.16;5012400;28;20057;-74
2022/10/09 01:26:55;;;;;;;17.05;7.50;;;;;;;8.10;100.00;102181.63;4994822;28;20444;-74
2022/10/09 01:29:25;;;;;;;25.92;7.90;;;;;;;8.15;100.00;102186.94;5010257;28;20053;-74
2022/10/09 01:31:53;;;;;;;16.05;7.65;;;;;;;8.08;100.00;102178.44;5015173;28;20067;-75
2022/10/09 01:34:22;;;;;;;19.05;7.55;;;;;;;7.95;100.00;102177.66;5011712;28;20171;-73
2022/10/09 01:36:50;;;;;;;20.25;8.30;;;;;;;7.86;100.00;102165.91;5011441;28;20057;-74
2022/10/09 01:39:21;;;;;;;21.70;8.07;;;;;;;7.89;100.00;102168.00;4997634;28;20057;-74
2022/10/09 01:41:50;;;;;;;18.48;7.55;;;;;;;7.87;100.00;102161.22;4992165;28;20099;-76
2022/10/09 01:44:28;;;;;;;18.90;7.90;;;;;;;7.96;100.00;102161.88;5016349;28;20057;-75
2022/10/09 01:46:56;;;;;;;17.10;7.75;;;;;;;7.97;100.00;102166.28;5007756;28;20054;-75
2022/10/09 01:49:28;;;;;;;21.95;8.18;;;;;;;7.99;100.00;102170.28;5010423;28;20061;-75
2022/10/09 01:52:13;;;;;;;17.98;8.20;;;;;;;7.99;100.00;102161.19;5010157;28;20049;-75
2022/10/09 01:54:51;;;;;;;16.13;7.07;;;;;;;7.92;100.00;102160.97;5011777;28;20045;-75
2022/10/09 01:57:35;;;;;;;22.40;8.95;;;;;;;7.89;100.00;102167.16;5017867;28;20057;-76
2022/10/09 02:00:07;;;;;;;17.75;7.88;;;;;;;7.85;100.00;102158.00;5029388;28;20079;-75
2022/10/09 02:02:35;;;;;;;19.88;7.65;;;;;;;7.82;100.00;102153.16;5028186;28;20057;-75
2022/10/09 02:05:02;;;;;;;19.75;7.97;;;;;;;7.84;100.00;102159.16;5030120;28;20076;-76
2022/10/09 02:07:31;;;;;;;19.90;7.82;;;;;;;7.80;100.00;102153.50;5021079;28;20062;-75
2022/10/09 02:10:00;;;;;;;18.92;7.70;;;;;;;7.76;100.00;102152.59;5021738;28;20049;-75
2022/10/09 02:12:30;;;;;;;18.98;8.18;;;;;;;7.78;100.00;102155.81;5017852;28;20085;-76
2022/10/09 02:14:57;;;;;;;18.63;7.95;;;;;;;7.76;100.00;102147.09;5026975;28;20049;-75
2022/10/09 02:17:28;;;;;;;25.05;9.32;;;;;;;7.72;100.00;102148.09;5019718;28;20058;-76
2022/10/09 02:20:02;;;;;;;20.05;8.13;;;;;;;7.72;100.00;102153.63;5014336;28;20057;-75
2022/10/09 02:22:30;;;;;;;17.77;7.28;;;;;;;7.71;100.00;102152.03;5027398;28;20460;-74
2022/10/09 02:25:00;;;;;;;18.98;7.68;;;;;;;7.70;100.00;102142.94;5000271;28;20521;-73
2022/10/09 02:27:27;;;;;;;21.65;8.30;;;;;;;7.66;100.00;102135.69;5022610;28;20049;-74
2022/10/09 02:29:54;;;;;;;17.92;7.93;;;;;;;7.66;100.00;102142.03;5006109;28;20045;-75
2022/10/09 02:32:20;;;;;;;17.20;8.23;;;;;;;7.63;100.00;102139.16;5017936;28;20123;-73
2022/10/09 02:34:47;;;;;;;19.60;8.05;;;;;;;7.62;100.00;102143.88;5022503;28;20049;-74
2022/10/09 02:37:13;;;;;;;20.25;7.90;;;;;;;7.64;100.00;102136.06;5021875;28;20062;-75
2022/10/09 02:39:41;;;;;;;21.50;7.65;;;;;;;7.57;100.00;102122.03;5031113;28;20050;-73
2022/10/09 02:42:08;;;;;;;16.65;8.25;;;;;;;7.60;100.00;102137.09;5035247;28;20049;-73
2022/10/09 02:44:35;;;;;;;22.00;8.25;;;;;;;7.55;100.00;102140.06;5034085;28;20072;-76
2022/10/09 02:47:02;;;;;;;19.23;7.82;;;;;;;7.49;100.00;102135.91;5028664;28;20057;-74
2022/10/09 02:49:28;;;;;;;22.63;8.43;;;;;;;7.42;100.00;102135.69;5028192;28;20134;-74
2022/10/09 02:51:54;;;;;;;18.60;8.38;;;;;;;7.18;100.00;102141.94;5030849;28;20092;-74
2022/10/09 02:54:21;;;;;;;26.20;8.98;;;;;;;7.15;100.00;102142.63;5040399;28;20060;-75
2022/10/09 02:56:47;;;;;;;20.13;8.27;;;;;;;7.20;100.00;102147.13;5029050;28;20417;-74
2022/10/09 02:59:14;;;;;;;21.60;10.13;;;;;;;7.23;100.00;102138.97;5025297;28;20414;-74
2022/10/09 03:01:40;;;;;;;18.05;8.27;;;;;;;7.30;100.00;102132.91;5026269;28;20531;-75
2022/10/09 03:04:07;;;;;;;18.65;8.70;;;;;;;7.31;100.00;102131.75;5018697;28;20108;-74
2022/10/09 03:06:33;;;;;;;20.42;7.97;;;;;;;7.21;100.00;102133.00;5027047;28;20053;-75
2022/10/09 03:09:00;;;;;;;18.73;8.13;;;;;;;7.24;100.00;102137.84;5037012;28;20049;-75
2022/10/09 03:11:27;;;;;;;20.17;7.60;;;;;;;7.28;100.00;102136.00;5023762;28;20398;-74
2022/10/09 03:13:53;;;;;;;17.00;7.82;;;;;;;7.29;100.00;102137.59;5021789;28;20094;-74
2022/10/09 03:16:22;;;;;;;22.20;8.68;;;;;;;7.24;100.00;102129.56;5025539;28;20049;-75
2022/10/09 03:18:50;;;;;;;20.92;7.97;;;;;;;7.23;100.00;102133.44;5026451;28;20050;-74
2022/10/09 03:21:23;;;;;;;18.13;7.80;;;;;;;7.24;100.00;102123.25;5023620;28;20501;-75
2022/10/09 03:23:51;;;;;;;19.60;7.97;;;;;;;7.23;100.00;102121.66;5021643;28;20049;-74
2022/10/09 03:26:20;;;;;;;18.65;8.82;;;;;;;7.21;100.00;102129.44;5022892;28;20533;-75
2022/10/09 03:28:49;;;;;;;23.27;9.18;;;;;;;7.16;100.00;102130.47;5021364;28;20046;-74
2022/10/09 03:31:17;;;;;;;20.33;8.95;;;;;;;7.14;100.00;102123.69;5003968;28;20042;-75
2022/10/09 03:34:04;;;;;;;20.05;9.07;;;;;;;7.09;100.00;102119.19;5027797;28;20050;-74
2022/10/09 03:36:30;;;;;;;18.17;7.85;;;;;;;7.08;100.00;102116.78;5012533;28;20057;-75
2022/10/09 03:38:57;;;;;;;18.30;7.80;;;;;;;7.02;100.00;102123.66;5022388;28;20119;-75
2022/10/09 03:41:23;;;;;;;18.55;8.20;;;;;;;7.03;100.00;102128.03;5023057;28;20046;-74
2022/10/09 03:43:49;;;;;;;21.38;8.23;;;;;;;7.01;100.00;102135.81;5024190;28;20057;-75
2022/10/09 03:46:16;;;;;;;19.70;8.13;;;;;;;6.86;100.00;102125.44;5040237;28;20060;-75
2022/10/09 03:48:42;;;;;;;17.45;7.95;;;;;;;6.89;100.00;102133.03;5027033;28;20077;-75
2022/10/09 03:51:09;;;;;;;17.58;8.23;;;;;;;6.92;100.00;102135.88;5034159;28;20188;-75
2022/10/09 03:53:35;;;;;;;19.15;7.93;;;;;;;6.85;100.00;102132.09;5000797;28;20525;-75
2022/10/09 03:56:02;;;;;;;18.52;8.48;;;;;;;6.87;100.00;102136.13;5029922;28;20057;-75
2022/10/09 03:58:28;;;;;;;19.35;8.32;;;;;;;6.86;100.00;102139.19;5025272;28;20107;-75
2022/10/09 04:00:55;;;;;;;20.10;8.20;;;;;;;6.85;100.00;102127.38;5023405;28;20053;-75
2022/10/09 04:03:21;;;;;;;18.73;8.00;;;;;;;6.84;100.00;102131.28;5012428;28;20450;-75
2022/10/09 04:05:48;;;;;;;19.73;7.95;;;;;;;6.88;100.00;102131.41;5028756;28;20481;-75
2022/10/09 04:08:15;;;;;;;18.52;8.48;;;;;;;6.88;100.00;102136.91;5027739;28;20516;-75
2022/10/09 04:10:41;;;;;;;17.80;7.97;;;;;;;6.88;100.00;102132.22;5009308;28;20718;-75
2022/10/09 04:13:07;;;;;;;20.40;8.95;;;;;;;6.82;100.00;102132.78;5028419;28;20544;-76
2022/10/09 04:15:35;;;;;;;18.98;8.70;;;;;;;6.77;100.00;102139.28;5025619;28;20050;-76
2022/10/09 04:18:02;;;;;;;23.27;9.07;;;;;;;6.72;100.00;102133.19;5012211;28;20049;-73
2022/10/09 04:20:29;;;;;;;23.08;9.27;;;;;;;6.69;100.00;102128.34;5004386;28;20049;-75
2022/10/09 04:22:55;;;;;;;20.48;8.80;;;;;;;6.69;100.00;102133.84;5011549;28;20049;-75
2022/10/09 04:25:22;;;;;;;20.98;8.43;;;;;;;6.67;100.00;102128.69;5021510;28;20053;-75
2022/10/09 04:27:48;;;;;;;23.13;10.05;;;;;;;6.62;100.00;102128.09;5022083;28;20045;-75
2022/10/09 04:30:15;;;;;;;18.75;8.38;;;;;;;6.59;100.00;102115.00;5018231;28;20068;-74
2022/10/09 04:32:41;;;;;;;19.17;8.45;;;;;;;6.61;100.00;102126.50;5024253;28;20041;-75
2022/10/09 04:35:08;;;;;;;23.23;8.77;;;;;;;6.59;100.00;102128.75;5022669;28;20074;-74
2022/10/09 04:37:35;;;;;;;16.58;7.82;;;;;;;6.60;100.00;102124.88;5024059;28;20060;-74
2022/10/09 04:40:02;;;;;;;16.08;7.82;;;;;;;6.58;100.00;102119.69;5023928;28;20064;-74
2022/10/09 04:42:29;;;;;;;20.90;8.55;;;;;;;6.62;100.00;102123.38;5028360;28;20048;-75
2022/10/09 04:44:55;;;;;;;19.92;8.20;;;;;;;6.63;100.00;102126.94;5027638;28;20057;-75
2022/10/09 04:47:22;;;;;;;19.13;8.55;;;;;;;6.58;100.00;102122.44;5026992;28;20058;-75
2022/10/09 04:49:48;;;;;;;18.20;8.05;;;;;;;6.52;100.00;102110.03;5000142;28;20049;-74
2022/10/09 04:52:15;;;;;;;22.60;8.30;;;;;;;6.47;100.00;102109.44;5023532;28;20054;-75
2022/10/09 04:54:41;;;;;;;18.08;8.35;;;;;;;6.42;100.00;102109.66;5021565;28;20045;-74
2022/10/09 04:57:08;;;;;;;17.50;8.10;;;;;;;6.40;100.00;102114.69;5022596;28;20060;-74
2022/10/09 04:59:34;;;;;;;21.25;8.48;;;;;;;6.39;100.00;102107.56;5026480;28;20049;-74
2022/10/09 05:02:01;;;;;;;16.60;7.75;;;;;;;6.41;100.00;102113.56;5021312;28;20045;-74
2022/10/09 05:04:27;;;;;;;23.80;10.32;;;;;;;6.40;100.00;102114.69;5013797;28;20049;-75
2022/10/09 05:06:54;;;;;;;19.75;8.60;;;;;;;6.38;100.00;102111.47;5026841;28;20084;-75
2022/10/09 05:09:20;;;;;;;19.60;7.93;;;;;;;6.35;100.00;102110.19;5024440;28;20049;-74
2022/10/09 05:11:46;;;;;;;21.65;9.85;;;;;;;6.35;100.00;102117.63;5024048;28;20510;-74
2022/10/09 05:14:13;;;;;;;23.80;8.68;;;;;;;6.30;100.00;102107.63;5025180;28;20057;-74
2022/10/09 05:16:39;;;;;;;21.40;8.93;;;;;;;6.37;100.00;102109.84;5026726;28;20049;-75
2022/10/09 05:19:26;;;;;;;17.42;8.75;;;;;;;6.35;100.00;102109.38;5024241;28;20069;-74
2022/10/09 05:21:53;;;;;;;18.95;9.30;;;;;;;6.31;100.00;102105.72;5028685;28;20739;-74
2022/10/09 05:24:20;;;;;;;19.00;8.55;;;;;;;6.34;100.00;102105.03;5028817;28;20048;-75
2022/10/09 05:26:46;;;;;;;19.40;8.63;;;;;;;6.31;100.00;102105.72;5028779;28;20095;-75
2022/10/09 05:29:12;;;;;;;21.40;8.48;;;;;;;6.30;100.00;102112.31;5027486;28;20046;-74
2022/10/09 05:31:39;;;;;;;18.50;8.13;;;;;;;6.25;100.00;102113.34;5026526;28;20042;-74
2022/10/09 05:34:05;;;;;;;22.77;9.10;;;;;;;6.23;100.00;102117.56;5033559;28;20051;-74
2022/10/09 05:36:32;;;;;;;18.33;8.35;;;;;;;6.20;100.00;102115.47;5013411;28;20053;-76
2022/10/09 05:39:00;;;;;;;22.42;8.52;;;;;;;6.19;100.00;102111.94;5025559;28;20099;-76
2022/10/09 05:41:30;;;;;;;16.58;7.97;;;;;;;6.24;100.00;102119.97;5017863;28;20057;-76
2022/10/09 05:44:00;;;;;;;20.27;8.02;;;;;;;6.22;100.00;102114.03;5018892;28;20124;-74
2022/10/09 05:46:28;;;;;;;20.98;8.95;;;;;;;6.24;100.00;102121.94;5027851;28;20426;-76
2022/10/09 05:48:57;;;;;;;18.55;8.65;;;;;;;6.20;100.00;102121.78;5026385;28;20168;-74
2022/10/09 05:51:29;;;;;;;20.25;9.05;;;;;;;6.16;100.00;102109.84;5020767;28;20045;-75
2022/10/09 05:53:56;;;;;;;20.08;8.13;;;;;;;6.20;100.00;102116.28;5025430;28;20502;-74
2022/10/09 05:56:26;;;;;;;18.27;8.45;;;;;;;6.11;100.00;102112.78;5028116;28;20501;-76
2022/10/09 05:58:58;;;;;;;21.52;8.93;;;;;;;6.05;100.00;102114.13;5027532;28;20130;-75
2022/10/09 06:01:27;;;;;;;19.08;8.80;;;;;;;6.07;100.00;102113.81;5027447;28;20045;-75
2022/10/09 06:03:55;;;;;;;20.08;8.90;;;;;;;6.09;100.00;102109.56;5034748;28;20098;-75
2022/10/09 06:06:25;;;;;;;24.30;10.38;;;;;;;6.15;100.00;102110.19;5029680;28;20056;-75
2022/10/09 06:08:52;;;;;;;18.38;8.75;;;;;;;6.16;100.00;102103.53;5029976;28;20056;-75
2022/10/09 06:11:27;;;;;;;18.08;8.80;;;;;;;6.16;100.00;102109.03;5026480;28;20056;-75
2022/10/09 06:13:55;;;;;;;20.00;9.05;;;;;;;6.17;100.00;102116.94;5030547;28;20052;-73
2022/10/09 06:16:24;;;;;;;22.42;10.82;;;;;;;6.19;100.00;102111.13;5032728;28;20103;-75
2022/10/09 06:18:52;;;;;;;21.55;8.98;;;;;;;6.20;100.00;102115.47;5013990;28;20104;-76
2022/10/09 06:21:19;;;;;;;20.98;9.00;;;;;;;6.19;100.00;102116.63;5028308;28;20064;-76
2022/10/09 06:23:50;;;;;;;21.42;8.95;;;;;;;6.20;100.00;102118.22;5037476;28;20048;-76
2022/10/09 06:26:18;;;;;;;19.40;8.07;;;;;;;6.27;100.00;102122.06;5032188;28;20053;-75
2022/10/09 06:28:44;;;;;;;19.60;8.57;;;;;;;6.30;100.00;102120.56;5034871;28;20049;-76
2022/10/09 06:31:13;;;;;;;22.35;8.60;;;;;;;6.34;100.00;102124.28;5015288;28;20056;-75
2022/10/09 06:33:42;;;;;;;18.23;7.97;;;;;;;6.35;100.00;102131.38;5034668;28;20050;-75
2022/10/09 06:36:11;;;;;;;19.27;8.00;;;;;;;6.34;100.00;102125.06;5016497;28;20053;-75
2022/10/09 06:38:38;;;;;;;20.33;8.98;;;;;;;6.34;100.00;102129.78;5029847;28;20061;-75
2022/10/09 06:41:07;;;;;;;19.58;8.90;;;;;;;6.36;100.00;102132.97;5039774;28;20060;-75
2022/10/09 06:43:34;;;;;;;23.35;8.38;;;;;;;6.38;100.00;102117.75;5033353;28;20552;-75
2022/10/09 06:46:03;;;;;;;24.05;8.82;;;;;;;6.49;100.00;102129.97;5032466;28;20045;-75
2022/10/09 06:48:31;;;;;;;18.17;8.90;;;;;;;6.49;100.00;102124.47;5034623;28;20099;-76
2022/10/09 06:51:05;;;;;;;20.80;9.38;;;;;;;6.52;100.00;102131.25;5037464;28;20063;-75
2022/10/09 06:53:36;;;;;;;21.17;9.25;;;;;;;6.53;100.00;102130.09;5035020;28;20053;-77
2022/10/09 06:56:03;;;;;;;20.65;8.65;;;;;;;6.58;100.00;102122.44;5034068;28;20056;-77
2022/10/09 06:58:30;;;;;;;19.85;8.40;;;;;;;6.62;100.00;102125.34;5032103;28;20049;-76
2022/10/09 07:01:12;;;;;;;18.48;8.45;;;;;;;6.73;100.00;102132.03;5035090;28;20045;-77
2022/10/09 07:03:41;;;;;;;19.80;9.73;;;;;;;6.78;100.00;102127.13;5028878;28;20135;-77
2022/10/09 07:06:19;;;;;;;19.95;9.30;;;;;;;6.85;100.00;102132.09;5032131;28;20057;-76
2022/10/09 07:08:49;;;;;;;23.30;9.75;;;;;;;6.92;100.00;102129.59;5027877;28;20379;-76
2022/10/09 07:11:19;;;;;;;22.02;9.55;;;;;;;7.00;100.00;102125.94;5030322;28;20068;-76
2022/10/09 07:13:47;;;;;;;24.88;9.65;;;;;;;7.09;100.00;102126.66;5030883;28;20046;-76
2022/10/09 07:16:18;;;;;;;23.85;9.85;;;;;;;7.17;100.00;102123.00;5028164;28;20053;-72
2022/10/09 07:18:45;;;;;;;19.63;8.68;;;;;;;7.22;100.00;102118.09;5031787;28;20412;-74
2022/10/09 07:21:11;;;;;;;22.05;11.00;;;;;;;7.34;100.00;102122.81;5025432;28;20084;-75
2022/10/09 07:23:37;;;;;;;24.38;9.98;;;;;;;7.41;100.00;102123.06;5043446;28;20053;-73
2022/10/09 07:26:16;;;;;;;20.75;9.88;;;;;;;7.50;100.00;102119.03;5031231;28;20056;-73
2022/10/09 07:28:43;;;;;;;22.80;10.07;;;;;;;7.63;100.00;102128.94;5028265;28;20054;-75
2022/10/09 07:31:10;;;;;;;24.42;10.00;;;;;;;7.75;100.00;102128.13;5030361;28;20057;-72
2022/10/09 07:33:37;;;;;;;20.02;10.35;;;;;;;7.86;100.00;102127.34;5032551;28;20048;-72
2022/10/09 07:36:05;;;;;;;20.23;9.63;;;;;;;7.98;100.00;102137.56;5040732;28;20041;-75
2022/10/09 07:38:31;;;;;;;21.05;9.70;;;;;;;8.08;100.00;102128.81;5029287;28;20126;-72
2022/10/09 07:41:00;;;;;;;20.00;10.32;;;;;;;8.18;100.00;102125.59;5027471;28;20529;-74
2022/10/09 07:43:27;;;;;;;24.90;10.32;;;;;;;8.27;100.00;102123.50;5029934;28;20049;-73
2022/10/09 07:45:57;;;;;;;28.10;11.35;;;;;;;8.43;100.00;102124.41;5030424;28;20054;-75
2022/10/09 07:48:24;;;;;;;21.42;10.13;;;;;;;8.53;100.00;102121.16;5029613;28;20053;-72
2022/10/09 07:50:50;;;;;;;24.05;10.95;;;;;;;8.69;100.00;102123.97;5027966;28;20056;-72
2022/10/09 07:53:17;;;;;;;21.15;10.45;;;;;;;8.83;100.00;102125.19;5017073;28;20068;-74
2022/10/09 07:55:47;;;;;;;25.17;10.38;;;;;;;8.97;100.00;102125.59;5027490;28;20425;-74
2022/10/09 07:58:15;;;;;;;22.77;9.32;;;;;;;9.11;100.00;102114.91;5032821;28;20409;-74
2022/10/09 08:00:43;;;;;;;26.67;11.40;;;;;;;9.23;100.00;102122.34;5025850;28;20076;-73
2022/10/09 08:03:10;;;;;;;22.52;10.75;;;;;;;9.33;100.00;102125.38;5029072;28;20069;-73
2022/10/09 08:05:36;;;;;;;24.27;10.55;;;;;;;9.46;100.00;102115.88;5027425;28;20051;-73
2022/10/09 08:08:03;;;;;;;22.33;9.70;;;;;;;9.64;100.00;102116.28;5032888;28;20064;-73
2022/10/09 08:10:30;;;;;;;21.50;9.27;;;;;;;9.78;100.00;102117.44;5020371;28;20699;-73
2022/10/09 08:12:56;;;;;;;21.98;9.40;;;;;;;9.92;100.00;102112.25;5029644;28;20041;-73
2022/10/09 08:15:23;;;;;;;21.98;9.57;;;;;;;10.07;100.00;102111.47;5012016;28;20512;-73
2022/10/09 08:17:53;;;;;;;20.05;8.25;;;;;;;10.23;100.00;102106.69;5030203;28;20085;-73
2022/10/09 08:20:20;;;;;;;23.88;9.07;;;;;;;10.39;100.00;102112.16;5025722;28;20072;-74
2022/10/09 08:22:47;;;;;;;22.13;9.57;;;;;;;10.52;100.00;102113.63;5029361;28;20044;-73
2022/10/09 08:25:14;;;;;;;22.33;8.65;;;;;;;10.69;100.00;102115.19;5035007;28;20132;-75
2022/10/09 08:27:40;;;;;;;22.17;9.15;;;;;;;10.83;100.00;102107.94;5028929;28;20045;-74
2022/10/09 08:30:07;;;;;;;24.25;9.48;;;;;;;10.99;100.00;102110.63;5027814;28;20103;-74
2022/10/09 08:32:33;;;;;;;22.20;8.50;;;;;;;11.14;100.00;102106.97;5010881;28;20049;-74
2022/10/09 08:35:00;;;;;;;19.73;7.85;;;;;;;11.29;100.00;102111.59;5031936;28;20073;-74
2022/10/09 08:37:26;;;;;;;23.60;7.97;;;;;;;11.48;100.00;102114.31;5035962;28;20107;-72
2022/10/09 08:39:53;;;;;;;19.02;7.20;;;;;;;11.64;100.00;102104.72;5009544;28;20053;-75
2022/10/09 08:42:31;;;;;;;20.50;7.82;;;;;;;11.83;100.00;102101.06;5031343;28;20460;-72
2022/10/09 08:44:57;;;;;;;19.58;6.57;;;;;;;11.94;100.00;102099.22;5026080;28;20053;-74
2022/10/09 08:47:27;;;;;;;15.50;5.95;;;;;;;12.17;100.00;102094.44;5028952;28;20532;-72
2022/10/09 08:50:09;;;;;;;18.40;6.47;;;;;;;12.43;100.00;102088.84;5032919;28;20056;-72
2022/10/09 08:53:01;;;;;;;16.50;6.57;;;;;;;12.60;100.00;102096.59;5027939;28;20095;-75
2022/10/09 08:55:31;;;;;;;16.02;6.75;;;;;;;12.80;100.00;102092.50;5027622;28;20053;-75
2022/10/09 08:58:04;;;;;;;13.55;5.60;;;;;;;12.96;100.00;102093.03;5015666;28;20053;-73
2022/10/09 09:00:44;;;;;;;19.55;6.13;;;;;;;13.14;100.00;102091.31;5020157;28;20053;-73
2022/10/09 09:03:43;;;;;;;19.20;7.45;;;;;;;13.32;100.00;102083.94;5011114;28;20049;-73
2022/10/09 09:06:38;;;;;;;15.45;6.22;;;;;;;13.52;100.00;102081.72;5025148;28;20057;-77
2022/10/09 09:09:39;;;;;;;20.48;8.95;;;;;;;13.78;100.00;102074.00;5031991;28;20045;-77
2022/10/09 09:12:20;;;;;;;12.10;5.57;;;;;;;13.95;100.00;102061.38;5038454;28;20048;-76
2022/10/09 09:15:24;;;;;;;15.95;5.22;;;;;;;14.15;100.00;102066.28;5030264;28;20056;-77
2022/10/09 09:18:29;;;;;;;17.63;5.25;;;;;;;14.36;100.00;102060.84;5017293;28;20049;-79
2022/10/09 09:21:09;;;;;;;15.40;4.18;;;;;;;14.59;100.00;102063.34;4942139;28;20334;-77
2022/10/09 09:23:41;;;;;;;13.02;4.30;;;;;;;14.81;100.00;102065.78;5003671;28;20057;-77
2022/10/09 09:26:20;;;;;;;14.70;4.25;;;;;;;14.99;100.00;102063.06;4998744;28;20056;-79
2022/10/09 09:28:51;;;;;;;11.85;4.00;;;;;;;15.14;100.00;102057.13;5002064;28;20049;-76
2022/10/09 09:31:29;;;;;;;9.30;3.97;;;;;;;15.29;100.00;102053.13;5000409;28;20056;-76
2022/10/09 09:34:13;;;;;;;8.50;2.58;;;;;;;15.52;100.00;102053.56;5000331;28;20048;-76
2022/10/09 09:36:52;;;;;;;12.40;3.53;;;;;;;15.74;100.00;102053.56;5001044;28;20138;-76
2022/10/09 09:39:23;;;;;;;12.70;2.65;;;;;;;15.92;100.00;102048.75;5008909;28;20053;-75
2022/10/09 09:42:09;;;;;;;15.50;3.22;;;;;;;16.09;96.91;102034.75;5001120;28;20127;-75
2022/10/09 09:44:41;;;;;;;14.73;3.38;;;;;;;16.14;89.31;102042.72;5006466;28;20060;-75
2022/10/09 09:47:14;;;;;;;9.40;2.53;;;;;;;16.29;91.38;102035.88;5004202;28;20053;-76
2022/10/09 09:49:56;;;;;;;10.55;2.90;;;;;;;16.41;87.75;102029.06;4996079;28;21500;-76
2022/10/09 09:52:27;;;;;;;9.52;2.80;;;;;;;16.57;90.54;102027.41;5002998;28;20053;-77
2022/10/09 09:54:56;;;;;;;11.35;2.67;;;;;;;16.73;89.32;102022.13;5000831;28;20049;-75
2022/10/09 09:57:36;;;;;;;10.55;2.63;;;;;;;16.85;86.07;102024.47;5001659;28;20049;-77
2022/10/09 10:00:14;;;;;;;11.93;2.80;;;;;;;17.03;84.84;102021.53;4996635;28;20064;-77
2022/10/09 10:02:41;;;;;;;9.63;2.80;;;;;;;17.07;81.50;102008.31;4992800;28;20049;-75
2022/10/09 10:05:25;;;;;;;13.07;3.10;;;;;;;17.25;81.57;102006.97;4989276;28;20053;-76
2022/10/09 10:07:52;;;;;;;10.80;2.67;;;;;;;17.34;80.38;102009.31;4999623;28;20761;-78
2022/10/09 10:10:26;;;;;;;13.88;2.80;;;;;;;17.36;77.80;102007.72;5000415;28;20890;-76
2022/10/09 10:12:59;;;;;;;9.68;2.88;;;;;;;17.35;78.62;101988.53;4999521;28;20052;-75
2022/10/09 10:15:26;;;;;;;5.25;1.73;;;;;;;17.35;73.45;101997.69;4995870;28;20190;-75
2022/10/09 10:17:56;;;;;;;12.88;3.50;;;;;;;17.57;78.55;101989.94;4992235;28;20060;-73
2022/10/09 10:20:22;;;;;;;8.93;2.67;;;;;;;17.76;76.17;101989.38;5006101;28;20056;-75
2022/10/09 10:22:51;;;;;;;13.93;3.67;;;;;;;17.84;74.07;101982.47;4990464;28;20269;-74
2022/10/09 10:25:22;;;;;;;12.13;3.05;;;;;;;18.04;74.86;101986.25;5013480;28;20792;-75
2022/10/09 10:27:54;;;;;;;9.52;2.47;;;;;;;18.20;75.40;101983.66;5016964;28;20046;-76
2022/10/09 10:30:20;;;;;;;10.95;3.03;;;;;;;18.28;72.30;101967.53;5005678;28;20052;-73
2022/10/09 10:33:16;;;;;;;16.58;2.90;;;;;;;18.48;72.37;101982.50;5006478;28;20041;-75
2022/10/09 10:35:44;;;;;;;10.10;2.80;;;;;;;18.65;71.21;101979.47;5006710;28;20056;-74
2022/10/09 10:38:38;;;;;;;11.90;2.85;;;;;;;18.78;66.86;101972.06;5014367;28;20065;-73
2022/10/09 10:41:10;;;;;;;11.35;2.40;;;;;;;19.13;69.84;101973.53;5016967;28;20048;-74
2022/10/09 10:43:42;;;;;;;13.82;2.75;;;;;;;19.32;68.37;101967.22;5010447;28;20041;-74
2022/10/09 10:46:16;;;;;;;7.50;2.70;;;;;;;19.58;67.09;101966.34;4997649;28;20846;-74
2022/10/09 10:48:46;;;;;;;4.95;1.58;;;;;;;19.27;61.04;101962.09;5008416;28;20056;-73
2022/10/09 10:51:12;;;;;;;7.13;2.35;;;;;;;19.54;63.84;101957.97;5018301;28;20060;-73
2022/10/09 10:53:57;;;;;;;8.27;2.42;;;;;;;19.88;63.49;101940.91;5010952;28;20602;-73
2022/10/09 10:56:47;;;;;;;4.95;2.10;;;;;;;20.18;59.08;101944.28;5011920;28;20066;-73
2022/10/09 10:59:44;;;;;;;8.68;2.17;;;;;;;20.45;55.72;101938.47;5018847;28;20057;-76
2022/10/09 11:02:17;;;;;;;9.98;2.10;;;;;;;20.53;57.77;101928.66;5008399;28;20152;-72
2022/10/09 11:05:21;;;;;;;9.57;3.00;;;;;;;20.59;53.70;101932.56;5013511;28;20108;-76
2022/10/09 11:08:07;;;;;;;7.38;2.40;;;;;;;20.72;53.57;101921.41;4998442;28;20061;-77
2022/10/09 11:10:54;;;;;;;7.75;2.17;;;;;;;21.11;55.85;101915.63;5001675;28;20320;-79
2022/10/09 11:13:33;;;;;;;10.85;2.50;;;;;;;21.35;52.50;101909.34;5000019;28;20096;-76
2022/10/09 11:16:20;;;;;;;10.20;2.13;;;;;;;21.81;53.20;101906.09;4983777;28;20061;-80
2022/10/09 11:18:56;;;;;;;8.50;1.92;;;;;;;21.84;51.50;101884.69;4997075;28;20142;-80
2022/10/09 11:21:41;;;;;;;5.03;2.38;;;;;;;22.35;51.47;101897.63;5001014;28;20053;-77
2022/10/09 11:24:29;;;;;;;5.90;2.15;;;;;;;22.73;50.08;101901.25;5007952;28;20797;-73
2022/10/09 11:27:16;;;;;;;10.63;2.38;;;;;;;23.09;46.69;101898.06;4999805;28;20277;-76
2022/10/09 11:29:50;;;;;;;8.70;2.50;;;;;;;23.02;46.30;101887.81;5001575;28;20161;-75
2022/10/09 11:32:27;;;;;;;9.30;1.92;;;;;;;22.98;44.83;101889.94;5000066;28;20057;-78
2022/10/09 11:34:58;;;;;;;4.35;1.60;;;;;;;22.69;43.78;101881.63;5008180;28;20060;-73